createdAt,value
2019-06-15T00:02:17.178Z,20.72
2019-06-15T00:04:45.893Z,20.67
2019-06-15T00:07:14.777Z,20.64
2019-06-15T00:09:43.500Z,20.59
2019-06-15T00:12:13.246Z,20.58
2019-06-15T00:14:42.126Z,20.59
2019-06-15T00:17:10.841Z,20.56
2019-06-15T00:19:39.558Z,20.49
2019-06-15T00:22:08.386Z,20.47
2019-06-15T00:24:37.094Z,20.50
2019-06-15T00:27:05.819Z,20.48
2019-06-15T00:29:34.685Z,20.52
2019-06-15T00:32:03.403Z,20.58
2019-06-15T00:34:32.123Z,20.63
2019-06-15T00:37:01.194Z,20.73
2019-06-15T00:39:29.921Z,20.91
2019-06-15T00:41:58.741Z,21.04
2019-06-15T00:44:27.512Z,21.20
2019-06-15T00:46:56.228Z,21.31
2019-06-15T00:49:24.952Z,21.36
2019-06-15T00:51:54.014Z,21.44
2019-06-15T00:54:22.737Z,21.52
2019-06-15T00:56:51.508Z,21.50
2019-06-15T00:59:20.387Z,21.50
2019-06-15T01:01:49.119Z,21.48
2019-06-15T01:04:17.842Z,21.44
2019-06-15T01:06:46.731Z,21.41
2019-06-15T01:09:15.459Z,21.41
2019-06-15T01:11:44.210Z,21.39
2019-06-15T01:14:12.957Z,21.24
2019-06-15T01:16:41.681Z,21.09
2019-06-15T01:19:10.392Z,20.93
2019-06-15T01:21:39.151Z,20.85
2019-06-15T01:24:07.870Z,20.68
2019-06-15T01:26:36.591Z,20.60
2019-06-15T01:29:05.473Z,20.50
2019-06-15T01:31:34.173Z,20.41
2019-06-15T01:34:02.897Z,20.40
2019-06-15T01:36:31.653Z,20.39
2019-06-15T01:39:00.374Z,20.36
2019-06-15T01:41:29.098Z,20.26
2019-06-15T01:43:57.866Z,20.26
2019-06-15T01:46:26.584Z,20.29
2019-06-15T01:48:55.311Z,20.28
2019-06-15T01:51:24.172Z,20.32
2019-06-15T01:53:52.900Z,20.28
2019-06-15T01:56:21.627Z,20.27
2019-06-15T01:58:50.441Z,20.28
2019-06-15T02:01:19.214Z,20.30
2019-06-15T02:03:47.999Z,20.32
2019-06-15T02:06:16.753Z,20.31
2019-06-15T02:08:45.478Z,20.30
2019-06-15T02:11:14.204Z,20.38
2019-06-15T02:13:43.072Z,20.46
2019-06-15T02:16:11.803Z,20.47
2019-06-15T02:18:40.537Z,20.48
2019-06-15T02:21:09.437Z,20.43
2019-06-15T02:23:38.202Z,20.43
2019-06-15T02:26:06.895Z,20.35
2019-06-15T02:28:35.742Z,20.29
2019-06-15T02:31:05.095Z,20.24
2019-06-15T02:33:33.838Z,20.21
2019-06-15T02:36:02.726Z,20.24
2019-06-15T02:38:31.464Z,20.21
2019-06-15T02:41:00.196Z,20.20
2019-06-15T02:43:29.102Z,20.24
2019-06-15T02:45:57.930Z,20.21
2019-06-15T02:48:26.674Z,20.24
2019-06-15T02:50:55.530Z,20.32
2019-06-15T02:53:24.330Z,20.39
2019-06-15T02:55:53.075Z,20.51
2019-06-15T02:58:21.931Z,20.52
2019-06-15T03:00:56.479Z,20.49
2019-06-15T03:03:25.368Z,20.48
2019-06-15T03:05:54.497Z,20.43
2019-06-15T03:08:23.726Z,20.40
2019-06-15T03:10:52.796Z,20.45
2019-06-15T03:13:24.156Z,20.44
2019-06-15T03:15:52.883Z,20.47
2019-06-15T03:18:21.790Z,20.36
2019-06-15T03:20:50.529Z,20.33
2019-06-15T03:23:19.265Z,20.38
2019-06-15T03:25:48.153Z,20.43
2019-06-15T03:28:16.881Z,20.38
2019-06-15T03:30:45.609Z,20.31
2019-06-15T03:33:14.567Z,20.33
2019-06-15T03:35:43.305Z,20.31
2019-06-15T03:38:12.030Z,20.33
2019-06-15T03:40:42.413Z,20.26
2019-06-15T03:43:11.243Z,20.20
2019-06-15T03:45:39.973Z,20.22
2019-06-15T03:48:08.772Z,20.23
2019-06-15T03:50:37.496Z,20.21
2019-06-15T03:53:06.222Z,20.22
2019-06-15T03:55:35.039Z,20.23
2019-06-15T03:58:03.759Z,20.30
2019-06-15T04:00:44.533Z,20.31
2019-06-15T04:03:13.562Z,20.34
2019-06-15T04:05:43.589Z,20.41
2019-06-15T04:08:12.573Z,20.40
2019-06-15T04:10:41.343Z,20.35
2019-06-15T04:13:10.110Z,20.41
2019-06-15T04:15:38.995Z,20.41
2019-06-15T04:18:07.731Z,20.50
2019-06-15T04:20:36.457Z,20.54
2019-06-15T04:23:06.357Z,20.55
2019-06-15T04:25:35.093Z,20.62
2019-06-15T04:28:03.818Z,20.63
2019-06-15T04:30:32.591Z,20.71
2019-06-15T04:33:02.490Z,20.86
2019-06-15T04:35:31.222Z,20.92
2019-06-15T04:38:00.023Z,20.99
2019-06-15T04:40:28.752Z,21.12
2019-06-15T04:42:57.479Z,21.25
2019-06-15T04:45:26.249Z,21.41
2019-06-15T04:47:54.978Z,21.49
2019-06-15T04:50:23.715Z,21.52
2019-06-15T04:52:52.479Z,21.69
2019-06-15T04:55:21.217Z,21.79
2019-06-15T04:57:50.014Z,21.99
2019-06-15T05:00:18.930Z,22.07
2019-06-15T05:02:47.966Z,22.41
2019-06-15T05:05:16.843Z,23.12
2019-06-15T05:07:46.404Z,23.65
2019-06-15T05:10:15.229Z,23.88
2019-06-15T05:12:43.956Z,23.88
2019-06-15T05:15:13.024Z,23.73
2019-06-15T05:17:41.752Z,23.46
2019-06-15T05:20:10.980Z,23.32
2019-06-15T05:22:39.870Z,23.23
2019-06-15T05:25:08.792Z,23.30
2019-06-15T05:27:37.554Z,23.31
2019-06-15T05:30:09.424Z,23.40
2019-06-15T05:32:38.159Z,23.58
2019-06-15T05:35:10.347Z,23.62
2019-06-15T05:37:39.142Z,23.66
2019-06-15T05:40:08.165Z,23.65
2019-06-15T05:42:36.895Z,23.65
2019-06-15T05:45:09.158Z,23.68
2019-06-15T05:47:37.867Z,23.80
2019-06-15T05:50:07.389Z,23.97
2019-06-15T05:52:36.269Z,24.11
2019-06-15T05:55:09.319Z,24.29
2019-06-15T05:57:38.043Z,24.38
2019-06-15T06:00:08.886Z,24.47
2019-06-15T06:02:37.615Z,24.57
2019-06-15T06:05:07.037Z,24.68
2019-06-15T06:07:36.148Z,24.68
2019-06-15T06:10:10.634Z,24.76
2019-06-15T06:12:37.889Z,24.76
2019-06-15T06:15:10.217Z,24.74
2019-06-15T06:17:41.544Z,24.67
2019-06-15T06:20:10.557Z,24.65
2019-06-15T06:22:39.429Z,24.74
2019-06-15T06:25:09.745Z,24.64
2019-06-15T06:27:38.530Z,24.62
2019-06-15T06:30:11.935Z,24.66
2019-06-15T06:32:41.988Z,24.78
2019-06-15T06:35:11.105Z,25.01
2019-06-15T06:37:39.974Z,25.01
2019-06-15T06:40:13.499Z,25.10
2019-06-15T06:42:42.302Z,25.49
2019-06-15T06:45:12.033Z,25.49
2019-06-15T06:47:41.274Z,25.70
2019-06-15T06:50:11.024Z,25.89
2019-06-15T06:52:39.920Z,26.14
2019-06-15T06:55:09.565Z,26.25
2019-06-15T06:57:51.376Z,26.46
2019-06-15T07:00:12.553Z,26.64
2019-06-15T07:02:42.630Z,27.14
2019-06-15T07:05:12.342Z,27.53
2019-06-15T07:07:41.232Z,27.67
2019-06-15T07:10:13.866Z,27.66
2019-06-15T07:12:42.672Z,27.84
2019-06-15T07:15:11.942Z,27.95
2019-06-15T07:17:40.760Z,27.96
2019-06-15T07:20:11.156Z,28.03
2019-06-15T07:22:40.205Z,27.88
2019-06-15T07:25:09.801Z,28.46
2019-06-15T07:27:38.627Z,29.14
2019-06-15T07:30:10.260Z,29.73
2019-06-15T07:32:39.366Z,30.62
2019-06-15T07:35:09.667Z,31.08
2019-06-15T07:37:38.847Z,31.28
2019-06-15T07:40:08.771Z,31.23
2019-06-15T07:42:39.421Z,31.60
2019-06-15T07:45:08.575Z,32.12
2019-06-15T07:47:37.413Z,32.75
2019-06-15T07:50:07.850Z,32.88
2019-06-15T07:52:36.901Z,32.95
2019-06-15T07:55:09.104Z,32.60
2019-06-15T07:57:37.929Z,32.55
2019-06-15T08:00:09.113Z,32.22
2019-06-15T08:02:37.993Z,32.15
2019-06-15T08:05:08.570Z,31.61
2019-06-15T08:07:37.428Z,31.13
2019-06-15T08:10:11.945Z,30.93
2019-06-15T08:12:40.854Z,30.61
2019-06-15T08:15:11.582Z,30.39
2019-06-15T08:17:40.385Z,30.15
2019-06-15T08:20:13.053Z,30.23
2019-06-15T08:22:41.934Z,30.50
2019-06-15T08:25:11.424Z,30.80
2019-06-15T08:27:40.285Z,30.90
2019-06-15T08:30:10.604Z,31.12
2019-06-15T08:32:39.427Z,31.48
2019-06-15T08:35:08.538Z,31.63
2019-06-15T08:37:37.411Z,31.64
2019-06-15T08:40:08.070Z,31.59
2019-06-15T08:42:36.872Z,31.42
2019-06-15T08:45:09.076Z,31.45
2019-06-15T08:47:37.883Z,31.56
2019-06-15T08:50:06.996Z,31.70
2019-06-15T08:52:35.983Z,32.10
2019-06-15T08:55:06.706Z,32.59
2019-06-15T08:57:35.434Z,32.83
2019-06-15T09:00:07.240Z,33.01
2019-06-15T09:02:36.023Z,32.95
2019-06-15T09:05:08.904Z,32.70
2019-06-15T09:07:37.773Z,33.00
2019-06-15T09:10:08.570Z,33.25
2019-06-15T09:12:37.299Z,33.98
2019-06-15T09:15:08.423Z,34.62
2019-06-15T09:17:37.238Z,34.92
2019-06-15T09:20:10.557Z,35.17
2019-06-15T09:22:39.396Z,35.31
2019-06-15T09:25:08.613Z,34.96
2019-06-15T09:27:37.434Z,34.74
2019-06-15T09:30:08.906Z,34.64
2019-06-15T09:32:37.652Z,35.24
2019-06-15T09:35:09.343Z,35.23
2019-06-15T09:37:38.923Z,35.29
2019-06-15T09:40:08.551Z,35.17
2019-06-15T09:42:37.279Z,35.27
2019-06-15T09:45:07.662Z,35.57
2019-06-15T09:47:36.370Z,35.37
2019-06-15T09:50:06.199Z,35.53
2019-06-15T09:52:35.078Z,35.36
2019-06-15T09:55:04.899Z,35.52
2019-06-15T09:57:34.425Z,35.59
2019-06-15T10:00:04.831Z,35.59
2019-06-15T10:02:33.559Z,35.44
2019-06-15T10:05:02.284Z,35.44
2019-06-15T10:07:31.105Z,35.56
2019-06-15T10:09:59.825Z,35.68
2019-06-15T10:12:28.548Z,35.73
2019-06-15T10:14:58.926Z,36.08
2019-06-15T10:17:27.763Z,35.86
2019-06-15T10:19:56.492Z,35.67
2019-06-15T10:22:25.378Z,35.44
2019-06-15T10:24:54.104Z,35.47
2019-06-15T10:27:22.819Z,35.45
2019-06-15T10:29:51.683Z,35.42
2019-06-15T10:32:20.426Z,35.44
2019-06-15T10:34:49.147Z,35.31
2019-06-15T10:37:18.226Z,35.73
2019-06-15T10:39:47.018Z,35.99
2019-06-15T10:42:15.725Z,36.13
2019-06-15T10:44:44.619Z,35.82
2019-06-15T10:47:13.330Z,35.82
2019-06-15T10:49:42.053Z,35.69
2019-06-15T10:52:11.594Z,35.76
2019-06-15T10:54:40.323Z,35.37
2019-06-15T10:57:09.039Z,35.00
2019-06-15T10:59:37.931Z,35.27
2019-06-15T11:02:07.602Z,35.12
2019-06-15T11:04:36.606Z,35.51
2019-06-15T11:07:05.879Z,36.03
2019-06-15T11:09:34.599Z,36.28
2019-06-15T11:12:03.457Z,35.92
2019-06-15T11:14:32.504Z,35.46
2019-06-15T11:17:01.334Z,34.82
2019-06-15T11:19:30.132Z,34.43
2019-06-15T11:21:58.986Z,34.06
2019-06-15T11:24:27.710Z,33.81
2019-06-15T11:26:56.435Z,34.16
2019-06-15T11:29:25.286Z,34.28
2019-06-15T11:31:54.001Z,34.39
2019-06-15T11:34:22.735Z,34.33
2019-06-15T11:36:51.803Z,34.59
2019-06-15T11:39:20.507Z,35.34
2019-06-15T11:41:49.276Z,36.01
2019-06-15T11:44:18.185Z,36.47
2019-06-15T11:46:46.928Z,36.86
2019-06-15T11:49:15.659Z,36.97
2019-06-15T11:51:45.019Z,37.09
2019-06-15T11:54:13.742Z,36.73
2019-06-15T11:56:42.457Z,35.71
2019-06-15T11:59:11.350Z,35.39
2019-06-15T12:01:41.505Z,35.63
2019-06-15T12:04:10.332Z,35.51
2019-06-15T12:06:40.669Z,35.80
2019-06-15T12:09:09.702Z,36.17
2019-06-15T12:11:38.413Z,36.46
2019-06-15T12:14:07.230Z,36.59
2019-06-15T12:16:35.956Z,36.74
2019-06-15T12:19:04.681Z,36.67
2019-06-15T12:21:33.632Z,36.73
2019-06-15T12:24:02.370Z,36.60
2019-06-15T12:26:31.075Z,36.48
2019-06-15T12:29:00.211Z,36.79
2019-06-15T12:31:30.386Z,36.85
2019-06-15T12:33:59.121Z,36.98
2019-06-15T12:36:27.892Z,37.03
2019-06-15T12:38:56.610Z,37.03
2019-06-15T12:41:25.328Z,37.24
2019-06-15T12:43:54.191Z,37.23
2019-06-15T12:46:22.915Z,37.15
2019-06-15T12:48:51.634Z,37.19
2019-06-15T12:51:20.429Z,37.09
2019-06-15T12:53:49.160Z,37.25
2019-06-15T12:56:17.892Z,37.10
2019-06-15T12:58:46.761Z,37.26
2019-06-15T13:01:16.397Z,37.28
2019-06-15T13:03:45.174Z,36.94
2019-06-15T13:06:14.069Z,36.91
2019-06-15T13:08:42.793Z,36.87
2019-06-15T13:11:11.522Z,36.63
2019-06-15T13:13:41.838Z,36.75
2019-06-15T13:16:11.934Z,36.39
2019-06-15T13:18:40.654Z,36.37
2019-06-15T13:21:09.432Z,36.64
2019-06-15T13:23:38.749Z,36.92
2019-06-15T13:26:07.600Z,37.22
2019-06-15T13:28:36.830Z,36.89
2019-06-15T13:31:17.669Z,36.90
2019-06-15T13:33:36.004Z,36.72
2019-06-15T13:36:04.782Z,36.41
2019-06-15T13:38:33.510Z,36.60
2019-06-15T13:41:02.230Z,36.60
2019-06-15T13:43:31.019Z,36.76
2019-06-15T13:46:00.340Z,37.01
2019-06-15T13:48:29.060Z,36.77
2019-06-15T13:50:58.014Z,36.73
2019-06-15T13:53:27.858Z,36.92
2019-06-15T13:55:56.593Z,36.85
2019-06-15T13:58:25.512Z,36.84
2019-06-15T14:00:54.231Z,36.74
2019-06-15T14:03:23.029Z,36.93
2019-06-15T14:05:51.996Z,37.20
2019-06-15T14:08:20.724Z,36.99
2019-06-15T14:10:49.444Z,37.20
2019-06-15T14:13:18.432Z,37.41
2019-06-15T14:15:47.945Z,37.48
2019-06-15T14:18:16.663Z,37.36
2019-06-15T14:20:45.472Z,37.14
2019-06-15T14:23:14.198Z,37.17
2019-06-15T14:25:42.946Z,37.35
2019-06-15T14:28:11.824Z,37.44
2019-06-15T14:30:40.554Z,37.59
2019-06-15T14:33:09.272Z,37.62
2019-06-15T14:35:38.058Z,37.64
2019-06-15T14:38:06.775Z,37.43
2019-06-15T14:40:35.495Z,37.31
2019-06-15T14:43:04.387Z,37.30
2019-06-15T14:45:33.111Z,37.16
2019-06-15T14:48:01.838Z,36.91
2019-06-15T14:50:30.718Z,36.72
2019-06-15T14:52:59.455Z,36.65
2019-06-15T14:55:28.166Z,36.54
2019-06-15T14:57:59.811Z,36.31
2019-06-15T15:00:28.517Z,36.16
2019-06-15T15:02:57.257Z,36.28
2019-06-15T15:05:27.588Z,36.19
2019-06-15T15:07:57.876Z,36.13
2019-06-15T15:10:27.196Z,36.24
2019-06-15T15:12:56.712Z,36.11
2019-06-15T15:15:25.539Z,36.11
2019-06-15T15:17:54.271Z,36.00
2019-06-15T15:20:23.168Z,35.67
2019-06-15T15:22:51.923Z,35.59
2019-06-15T15:25:20.659Z,35.39
2019-06-15T15:27:49.743Z,35.02
2019-06-15T15:30:27.419Z,34.75
2019-06-15T15:32:57.140Z,34.78
2019-06-15T15:35:26.911Z,34.76
2019-06-15T15:37:56.960Z,34.58
2019-06-15T15:40:27.488Z,34.46
2019-06-15T15:42:56.393Z,34.30
2019-06-15T15:45:26.291Z,34.17
2019-06-15T15:47:55.632Z,34.31
2019-06-15T15:50:26.300Z,34.40
2019-06-15T15:52:56.774Z,34.12
2019-06-15T15:55:26.700Z,33.97
2019-06-15T15:57:56.296Z,33.76
2019-06-15T16:00:34.067Z,33.59
2019-06-15T16:03:06.938Z,33.51
2019-06-15T16:05:37.100Z,33.29
2019-06-15T16:08:06.628Z,33.01
2019-06-15T16:10:37.619Z,32.67
2019-06-15T16:13:06.693Z,32.52
2019-06-15T16:15:37.264Z,32.38
2019-06-15T16:18:06.935Z,32.19
2019-06-15T16:20:37.008Z,32.05
2019-06-15T16:23:07.895Z,31.90
2019-06-15T16:25:37.343Z,31.65
2019-06-15T16:28:07.122Z,31.32
2019-06-15T16:31:00.560Z,31.21
2019-06-15T16:33:07.954Z,31.06
2019-06-15T16:35:37.000Z,30.86
2019-06-15T16:38:07.143Z,30.73
2019-06-15T16:40:40.859Z,30.50
2019-06-15T16:43:10.035Z,30.42
2019-06-15T16:45:39.764Z,30.16
2019-06-15T16:48:08.510Z,30.04
2019-06-15T16:50:37.229Z,29.87
2019-06-15T16:53:06.943Z,29.72
2019-06-15T16:55:36.984Z,29.59
2019-06-15T16:58:07.491Z,29.44
2019-06-15T17:00:37.274Z,29.35
2019-06-15T17:03:19.932Z,29.36
2019-06-15T17:05:38.074Z,29.32
2019-06-15T17:08:07.270Z,29.21
2019-06-15T17:10:43.915Z,29.09
2019-06-15T17:13:16.072Z,28.94
2019-06-15T17:15:46.851Z,28.79
2019-06-15T17:18:14.943Z,28.52
2019-06-15T17:20:51.271Z,28.31
2019-06-15T17:23:20.250Z,28.22
2019-06-15T17:25:49.133Z,28.11
2019-06-15T17:28:18.055Z,27.93
2019-06-15T17:30:47.102Z,27.78
2019-06-15T17:33:16.512Z,27.58
2019-06-15T17:35:56.152Z,27.50
2019-06-15T17:38:16.907Z,27.32
2019-06-15T17:40:46.078Z,27.12
2019-06-15T17:43:16.162Z,26.97
2019-06-15T17:45:46.884Z,26.86
2019-06-15T17:48:17.406Z,26.73
2019-06-15T17:50:47.728Z,26.57
2019-06-15T17:53:17.059Z,26.44
2019-06-15T17:55:46.674Z,26.35
2019-06-15T17:58:16.948Z,26.26
2019-06-15T18:00:51.732Z,26.19
2019-06-15T18:03:20.601Z,26.09
2019-06-15T18:05:49.319Z,26.04
2019-06-15T18:08:18.041Z,25.97
2019-06-15T18:10:47.838Z,25.87
2019-06-15T18:13:17.296Z,25.76
2019-06-15T18:15:47.569Z,25.65
2019-06-15T18:18:17.238Z,25.59
2019-06-15T18:20:46.281Z,25.49
2019-06-15T18:23:17.383Z,25.40
2019-06-15T18:25:46.832Z,25.31
2019-06-15T18:28:17.452Z,25.35
2019-06-15T18:30:46.973Z,25.42
2019-06-15T18:33:16.629Z,25.25
2019-06-15T18:35:47.517Z,25.25
2019-06-15T18:38:15.906Z,25.18
2019-06-15T18:40:44.768Z,25.14
2019-06-15T18:43:13.508Z,25.13
2019-06-15T18:45:43.059Z,25.09
2019-06-15T18:48:11.940Z,24.90
2019-06-15T18:50:42.235Z,24.82
2019-06-15T18:53:11.185Z,24.83
2019-06-15T18:55:39.976Z,24.78
2019-06-15T18:58:08.707Z,24.72
2019-06-15T19:00:37.424Z,24.67
2019-06-15T19:03:07.051Z,24.58
2019-06-15T19:05:37.191Z,24.38
2019-06-15T19:08:06.954Z,24.38
2019-06-15T19:10:37.092Z,24.43
2019-06-15T19:13:07.506Z,24.62
2019-06-15T19:15:37.488Z,24.60
2019-06-15T19:18:07.272Z,24.53
2019-06-15T19:20:37.189Z,24.56
2019-06-15T19:23:07.015Z,24.58
2019-06-15T19:25:36.733Z,24.51
2019-06-15T19:28:05.823Z,24.41
2019-06-15T19:30:40.335Z,24.28
2019-06-15T19:33:09.269Z,24.16
2019-06-15T19:35:38.491Z,24.20
2019-06-15T19:38:10.591Z,24.29
2019-06-15T19:40:39.755Z,24.27
2019-06-15T19:43:08.481Z,24.44
2019-06-15T19:45:38.641Z,24.51
2019-06-15T19:48:07.488Z,24.67
2019-06-15T19:50:36.534Z,24.80
2019-06-15T19:53:07.025Z,25.01
2019-06-15T19:55:36.479Z,25.00
2019-06-15T19:58:07.207Z,25.07
2019-06-15T20:00:36.949Z,25.07
2019-06-15T20:03:06.978Z,25.03
2019-06-15T20:05:37.045Z,24.94
2019-06-15T20:08:07.038Z,24.79
2019-06-15T20:10:37.111Z,24.69
2019-06-15T20:13:07.135Z,24.63
2019-06-15T20:15:37.803Z,24.59
2019-06-15T20:18:07.127Z,24.55
2019-06-15T20:20:37.274Z,24.52
2019-06-15T20:23:07.179Z,24.39
2019-06-15T20:25:37.918Z,24.47
2019-06-15T20:28:07.303Z,24.49
2019-06-15T20:30:37.117Z,24.52
2019-06-15T20:33:08.110Z,24.65
2019-06-15T20:35:36.923Z,24.49
2019-06-15T20:38:05.647Z,24.23
2019-06-15T20:40:36.457Z,24.02
2019-06-15T20:43:07.368Z,23.83
2019-06-15T20:45:37.144Z,23.74
2019-06-15T20:48:07.350Z,23.69
2019-06-15T20:50:36.420Z,23.69
2019-06-15T20:53:06.058Z,23.53
2019-06-15T20:55:37.337Z,23.38
2019-06-15T20:58:06.899Z,23.22
2019-06-15T21:00:36.779Z,23.15
2019-06-15T21:03:07.321Z,23.14
2019-06-15T21:05:41.552Z,23.06
2019-06-15T21:08:07.598Z,22.96
2019-06-15T21:10:38.176Z,22.88
2019-06-15T21:13:06.897Z,22.81
2019-06-15T21:15:38.526Z,22.78
2019-06-15T21:18:07.487Z,22.76
2019-06-15T21:20:37.232Z,22.79
2019-06-15T21:23:06.619Z,22.83
2019-06-15T21:25:35.710Z,22.81
2019-06-15T21:28:06.667Z,22.74
2019-06-15T21:30:36.863Z,22.70
2019-06-15T21:33:07.030Z,22.53
2019-06-15T21:35:48.180Z,22.39
2019-06-15T21:38:06.791Z,22.31
2019-06-15T21:40:37.015Z,22.27
2019-06-15T21:43:07.106Z,22.37
2019-06-15T21:45:37.010Z,22.44
2019-06-15T21:48:07.000Z,22.56
2019-06-15T21:50:36.311Z,22.47
2019-06-15T21:53:06.872Z,22.38
2019-06-15T21:55:36.375Z,22.31
2019-06-15T21:58:07.507Z,22.35
2019-06-15T22:01:12.217Z,22.36
2019-06-15T22:03:42.306Z,22.38
2019-06-15T22:06:11.017Z,22.37
2019-06-15T22:08:41.363Z,22.38
2019-06-15T22:11:11.532Z,22.21
2019-06-15T22:13:41.755Z,22.12
2019-06-15T22:16:13.948Z,22.10
2019-06-15T22:18:42.681Z,22.04
2019-06-15T22:21:11.396Z,21.91
2019-06-15T22:23:40.183Z,21.84
2019-06-15T22:26:08.909Z,21.74
2019-06-15T22:28:38.655Z,21.63
2019-06-15T22:31:07.544Z,21.59
2019-06-15T22:33:36.767Z,21.54
2019-06-15T22:36:20.764Z,21.51
2019-06-15T22:38:36.941Z,21.50
2019-06-15T22:41:06.144Z,21.48
2019-06-15T22:43:36.423Z,21.52
2019-06-15T22:46:07.526Z,21.50
2019-06-15T22:48:36.266Z,21.54
2019-06-15T22:51:06.241Z,21.52
2019-06-15T22:53:36.444Z,21.49
2019-06-15T22:56:06.553Z,21.48
2019-06-15T22:58:35.703Z,21.41
2019-06-15T23:01:06.115Z,21.36
2019-06-15T23:03:35.098Z,21.29
2019-06-15T23:06:03.825Z,21.28
2019-06-15T23:08:36.165Z,21.22
2019-06-15T23:11:06.521Z,21.19
2019-06-15T23:13:36.675Z,21.19
2019-06-15T23:16:07.746Z,21.18
2019-06-15T23:18:36.466Z,21.20
2019-06-15T23:21:06.381Z,21.28
2019-06-15T23:23:36.134Z,21.29
2019-06-15T23:26:06.653Z,21.29
2019-06-15T23:28:35.910Z,21.25
2019-06-15T23:31:07.784Z,21.17
2019-06-15T23:33:36.539Z,21.13
2019-06-15T23:36:06.824Z,21.10
2019-06-15T23:38:37.781Z,21.16
2019-06-15T23:41:07.007Z,21.13
2019-06-15T23:43:36.276Z,21.06
2019-06-15T23:46:07.012Z,21.04
2019-06-15T23:48:36.421Z,20.97
2019-06-15T23:51:06.799Z,20.94
2019-06-15T23:53:36.800Z,20.83
2019-06-15T23:56:06.467Z,20.78
2019-06-15T23:58:37.011Z,20.72
